Terminal Aerodrome Forecast
Issued by NWS Sterling, VA

Current Version | Previous Version | Graphics & Text | Print | Product List | Glossary On
Versions: 1 2 3 4 5 6 7 8 9 10 11 12 13 14 15 16 17 18 19 20 21 22
234
FTUS41 KLWX 161520 AAA
TAFMRB
TAF AMD
KMRB 161520Z 1615/1712 25007KT P6SM OVC050
     FM161600 28016G27KT P6SM BKN050
     FM170100 30010G17KT P6SM SCT040
     FM171100 30006KT P6SM FEW250=

USA.gov is the U.S. government's official web portal to all federal, state and local government web resources and services.